createdAt,value
2018-07-31T00:00:19.777Z,0.00
2018-07-31T00:01:19.675Z,0.00
2018-07-31T00:03:12.531Z,0.00
2018-07-31T00:04:12.424Z,0.00
2018-07-31T00:06:05.259Z,0.00
2018-07-31T00:07:05.168Z,0.00
2018-07-31T00:08:58.038Z,0.00
2018-07-31T00:09:57.939Z,0.00
2018-07-31T00:11:50.770Z,0.00
2018-07-31T00:12:50.681Z,0.00
2018-07-31T00:14:43.522Z,0.00
2018-07-31T00:15:43.442Z,0.00
2018-07-31T00:17:36.258Z,0.00
2018-07-31T00:18:36.169Z,0.00
2018-07-31T00:20:29.025Z,0.00
2018-07-31T00:21:28.927Z,0.00
2018-07-31T00:23:21.778Z,0.00
2018-07-31T00:24:21.690Z,0.00
2018-07-31T00:26:14.549Z,0.00
2018-07-31T00:27:14.420Z,0.00
2018-07-31T00:29:07.257Z,0.00
2018-07-31T00:30:07.176Z,0.00
2018-07-31T00:32:00.035Z,0.00
2018-07-31T00:32:59.920Z,0.00
2018-07-31T00:34:52.756Z,0.00
2018-07-31T00:35:52.669Z,0.00
2018-07-31T00:37:45.581Z,0.00
2018-07-31T00:38:45.429Z,0.00
2018-07-31T00:40:38.286Z,0.00
2018-07-31T00:41:38.163Z,0.00
2018-07-31T00:43:31.043Z,0.00
2018-07-31T00:44:30.922Z,0.00
2018-07-31T00:46:23.768Z,0.00
2018-07-31T00:47:23.685Z,0.00
2018-07-31T00:49:16.535Z,0.00
2018-07-31T00:50:16.515Z,0.00
2018-07-31T00:52:09.298Z,0.00
2018-07-31T00:53:09.168Z,0.00
2018-07-31T00:55:02.006Z,0.00
2018-07-31T00:56:01.908Z,0.00
2018-07-31T00:57:54.763Z,0.00
2018-07-31T00:58:54.665Z,0.00
2018-07-31T01:00:48.538Z,0.00
2018-07-31T01:01:48.448Z,0.00
2018-07-31T01:03:41.300Z,0.00
2018-07-31T01:04:41.190Z,0.00
2018-07-31T01:06:34.034Z,0.00
2018-07-31T01:07:33.966Z,0.00
2018-07-31T01:09:26.801Z,0.00
2018-07-31T01:10:26.691Z,0.00
2018-07-31T01:12:19.583Z,0.00
2018-07-31T01:13:19.436Z,0.00
2018-07-31T01:15:12.282Z,0.00
2018-07-31T01:16:12.184Z,0.00
2018-07-31T01:18:05.040Z,0.00
2018-07-31T01:19:04.944Z,0.00
2018-07-31T01:20:57.799Z,0.00
2018-07-31T01:21:57.693Z,0.00
2018-07-31T01:23:50.569Z,0.00
2018-07-31T01:24:50.431Z,0.00
2018-07-31T01:26:43.290Z,0.00
2018-07-31T01:27:43.179Z,0.00
2018-07-31T01:29:37.710Z,0.00
2018-07-31T01:30:37.465Z,0.00
2018-07-31T01:32:30.246Z,0.00
2018-07-31T01:33:30.131Z,0.00
2018-07-31T01:35:22.970Z,0.00
2018-07-31T01:36:22.873Z,0.00
2018-07-31T01:38:15.761Z,0.00
2018-07-31T01:39:15.611Z,0.00
2018-07-31T01:41:08.493Z,0.00
2018-07-31T01:42:08.375Z,0.00
2018-07-31T01:44:01.226Z,0.00
2018-07-31T01:45:01.134Z,0.00
2018-07-31T01:46:53.985Z,0.00
2018-07-31T01:47:53.885Z,0.00
2018-07-31T01:49:46.711Z,0.00
2018-07-31T01:50:46.621Z,0.00
2018-07-31T01:52:39.630Z,0.00
2018-07-31T01:53:39.373Z,0.00
2018-07-31T01:55:32.244Z,0.00
2018-07-31T01:56:32.123Z,0.00
2018-07-31T01:58:24.972Z,0.00
2018-07-31T01:59:24.898Z,0.00
2018-07-31T02:01:17.745Z,0.00
2018-07-31T02:02:17.619Z,0.00
2018-07-31T02:04:10.456Z,0.00
2018-07-31T02:05:10.369Z,0.00
2018-07-31T02:07:03.215Z,0.00
2018-07-31T02:08:03.119Z,0.00
2018-07-31T02:09:55.994Z,0.00
2018-07-31T02:10:55.863Z,0.00
2018-07-31T02:12:48.715Z,0.00
2018-07-31T02:13:48.610Z,0.00
2018-07-31T02:15:41.468Z,0.00
2018-07-31T02:16:41.363Z,0.00
2018-07-31T02:18:34.211Z,0.00
2018-07-31T02:19:34.110Z,0.00
2018-07-31T02:21:26.955Z,0.00
2018-07-31T02:22:26.866Z,0.00
2018-07-31T02:24:19.728Z,0.00
2018-07-31T02:25:19.615Z,0.00
2018-07-31T02:27:12.471Z,0.00
2018-07-31T02:28:12.458Z,0.00
2018-07-31T02:30:05.220Z,0.00
2018-07-31T02:31:05.117Z,0.00
2018-07-31T02:32:58.301Z,0.00
2018-07-31T02:33:57.864Z,0.00
2018-07-31T02:35:51.135Z,0.00
2018-07-31T02:36:51.028Z,0.00
2018-07-31T02:38:43.871Z,0.00
2018-07-31T02:39:43.766Z,0.00
2018-07-31T02:41:36.634Z,0.00
2018-07-31T02:42:36.518Z,0.00
2018-07-31T02:44:30.300Z,0.00
2018-07-31T02:45:30.187Z,0.00
2018-07-31T02:47:23.040Z,0.00
2018-07-31T02:48:23.012Z,0.00
2018-07-31T02:50:15.785Z,0.00
2018-07-31T02:51:15.714Z,0.00
2018-07-31T02:53:08.565Z,0.00
2018-07-31T02:54:08.471Z,0.00
2018-07-31T02:56:01.316Z,0.00
2018-07-31T02:57:01.181Z,0.00
2018-07-31T02:58:54.026Z,0.00
2018-07-31T02:59:53.931Z,0.00
2018-07-31T03:01:46.782Z,0.00
2018-07-31T03:02:46.681Z,0.00
2018-07-31T03:04:39.545Z,0.00
2018-07-31T03:05:39.433Z,0.00
2018-07-31T03:07:32.294Z,0.00
2018-07-31T03:08:32.212Z,0.00
2018-07-31T03:10:25.021Z,0.00
2018-07-31T03:11:24.936Z,0.00
2018-07-31T03:13:18.211Z,0.00
2018-07-31T03:14:18.107Z,0.00
2018-07-31T03:16:10.932Z,0.00
2018-07-31T03:17:10.840Z,0.00
2018-07-31T03:19:03.702Z,0.00
2018-07-31T03:20:03.585Z,0.00
2018-07-31T03:21:56.474Z,0.00
2018-07-31T03:22:56.330Z,0.00
2018-07-31T03:24:49.202Z,0.00
2018-07-31T03:25:49.082Z,0.00
2018-07-31T03:27:41.966Z,0.00
2018-07-31T03:28:41.854Z,0.00
2018-07-31T03:30:34.704Z,0.00
2018-07-31T03:31:34.744Z,0.00
2018-07-31T03:33:27.444Z,0.00
2018-07-31T03:34:27.359Z,0.00
2018-07-31T03:36:20.308Z,0.00
2018-07-31T03:37:20.096Z,0.00
2018-07-31T03:39:13.361Z,0.00
2018-07-31T03:40:13.265Z,0.00
2018-07-31T03:42:18.101Z,0.00
2018-07-31T03:43:17.982Z,0.00
2018-07-31T03:45:10.848Z,5.63
2018-07-31T03:46:10.723Z,5.63
2018-07-31T03:48:03.584Z,5.63
2018-07-31T03:49:03.470Z,5.63
2018-07-31T03:50:56.759Z,5.63
2018-07-31T03:51:56.659Z,5.63
2018-07-31T03:53:50.012Z,5.63
2018-07-31T03:54:49.904Z,5.63
2018-07-31T03:56:42.765Z,5.63
2018-07-31T03:57:42.658Z,11.25
2018-07-31T03:59:35.513Z,11.25
2018-07-31T04:00:35.404Z,11.25
2018-07-31T04:02:28.297Z,11.25
2018-07-31T04:03:28.159Z,11.25
2018-07-31T04:05:21.017Z,11.25
2018-07-31T04:06:20.887Z,11.25
2018-07-31T04:08:13.753Z,16.88
2018-07-31T04:09:13.651Z,16.88
2018-07-31T04:11:06.518Z,16.88
2018-07-31T04:12:06.397Z,16.88
2018-07-31T04:13:59.232Z,16.88
2018-07-31T04:14:59.141Z,16.88
2018-07-31T04:16:53.006Z,22.50
2018-07-31T04:17:53.231Z,22.50
2018-07-31T04:19:44.746Z,22.50
2018-07-31T04:20:44.647Z,22.50
2018-07-31T04:22:37.490Z,22.50
2018-07-31T04:23:37.782Z,22.50
2018-07-31T04:25:30.247Z,22.50
2018-07-31T04:26:30.143Z,28.13
2018-07-31T04:28:22.991Z,28.13
2018-07-31T04:29:22.986Z,28.13
2018-07-31T04:31:15.770Z,28.13
2018-07-31T04:32:15.672Z,28.13
2018-07-31T04:34:08.493Z,28.13
2018-07-31T04:35:08.418Z,28.13
2018-07-31T04:37:01.274Z,33.75
2018-07-31T04:38:01.155Z,33.75
2018-07-31T04:39:53.988Z,33.75
2018-07-31T04:40:53.889Z,33.75
2018-07-31T04:42:46.723Z,33.75
2018-07-31T04:43:46.645Z,33.75
2018-07-31T04:45:39.505Z,33.75
2018-07-31T04:46:39.395Z,39.38
2018-07-31T04:48:32.227Z,39.38
2018-07-31T04:49:32.135Z,39.38
2018-07-31T04:51:25.015Z,39.38
2018-07-31T04:52:24.889Z,39.38
2018-07-31T04:54:17.725Z,39.38
2018-07-31T04:55:17.633Z,39.38
2018-07-31T04:57:10.499Z,39.38
2018-07-31T04:58:10.387Z,39.38
2018-07-31T05:00:03.254Z,45.00
2018-07-31T05:01:03.144Z,45.00
2018-07-31T05:02:55.975Z,45.00
2018-07-31T05:03:55.889Z,45.00
2018-07-31T05:05:48.772Z,45.00
2018-07-31T05:06:48.627Z,45.00
2018-07-31T05:08:41.472Z,45.00
2018-07-31T05:09:41.522Z,45.00
2018-07-31T05:11:34.233Z,50.63
2018-07-31T05:12:34.127Z,50.63
2018-07-31T05:14:26.973Z,50.63
2018-07-31T05:15:26.884Z,50.63
2018-07-31T05:17:19.744Z,50.63
2018-07-31T05:18:19.685Z,56.25
2018-07-31T05:20:12.481Z,56.25
2018-07-31T05:21:12.383Z,56.25
2018-07-31T05:23:05.232Z,56.25
2018-07-31T05:24:05.129Z,56.25
2018-07-31T05:25:57.986Z,61.88
2018-07-31T05:26:57.890Z,61.88
2018-07-31T05:28:50.716Z,61.88
2018-07-31T05:29:50.644Z,67.50
2018-07-31T05:31:43.499Z,67.50
2018-07-31T05:32:43.497Z,73.13
2018-07-31T05:34:36.233Z,78.75
2018-07-31T05:35:36.143Z,84.38
2018-07-31T05:37:28.985Z,84.38
2018-07-31T05:38:28.896Z,84.38
2018-07-31T05:40:21.721Z,84.38
2018-07-31T05:41:21.645Z,84.38
2018-07-31T05:43:14.507Z,84.38
2018-07-31T05:44:14.388Z,84.38
2018-07-31T05:46:07.250Z,90.00
2018-07-31T05:47:07.129Z,90.00
2018-07-31T05:48:59.985Z,90.00
2018-07-31T05:49:59.881Z,90.00
2018-07-31T05:51:52.798Z,90.00
2018-07-31T05:52:52.634Z,90.00
2018-07-31T05:54:45.505Z,90.00
2018-07-31T05:55:45.384Z,90.00
2018-07-31T05:57:38.242Z,90.00
2018-07-31T05:58:38.131Z,95.63
2018-07-31T06:00:30.979Z,95.63
2018-07-31T06:01:30.873Z,95.63
2018-07-31T06:03:23.730Z,95.63
2018-07-31T06:04:23.632Z,95.63
2018-07-31T06:06:16.464Z,95.63
2018-07-31T06:07:16.382Z,95.63
2018-07-31T06:09:09.246Z,95.63
2018-07-31T06:10:09.119Z,101.25
2018-07-31T06:12:01.972Z,101.25
2018-07-31T06:13:01.870Z,101.25
2018-07-31T06:14:54.729Z,101.25
2018-07-31T06:15:54.637Z,101.25
2018-07-31T06:17:47.483Z,101.25
2018-07-31T06:18:47.373Z,101.25
2018-07-31T06:20:40.210Z,101.25
2018-07-31T06:21:40.121Z,106.88
2018-07-31T06:23:32.975Z,106.88
2018-07-31T06:24:32.873Z,106.88
2018-07-31T06:26:25.708Z,106.88
2018-07-31T06:27:25.616Z,106.88
2018-07-31T06:29:18.473Z,106.88
2018-07-31T06:30:18.390Z,106.88
2018-07-31T06:32:11.247Z,106.88
2018-07-31T06:33:11.140Z,106.88
2018-07-31T06:35:04.027Z,106.88
2018-07-31T06:36:03.880Z,106.88
2018-07-31T06:37:56.858Z,106.88
2018-07-31T06:38:56.626Z,106.88
2018-07-31T06:40:49.506Z,112.50
2018-07-31T06:41:49.395Z,112.50
2018-07-31T06:43:42.246Z,112.50
2018-07-31T06:44:42.123Z,112.50
2018-07-31T06:46:35.878Z,112.50
2018-07-31T06:47:35.794Z,112.50
2018-07-31T06:49:28.644Z,118.13
2018-07-31T06:50:28.539Z,118.13
2018-07-31T06:52:21.378Z,118.13
2018-07-31T06:53:21.300Z,118.13
2018-07-31T06:55:14.160Z,118.13
2018-07-31T06:56:14.052Z,118.13
2018-07-31T06:58:06.905Z,123.75
2018-07-31T06:59:06.798Z,123.75
2018-07-31T07:00:59.655Z,123.75
2018-07-31T07:01:59.579Z,123.75
2018-07-31T07:03:52.422Z,123.75
2018-07-31T07:04:52.300Z,123.75
2018-07-31T07:06:45.134Z,129.38
2018-07-31T07:07:45.048Z,129.38
2018-07-31T07:09:37.904Z,129.38
2018-07-31T07:10:37.794Z,129.38
2018-07-31T07:12:30.713Z,135.00
2018-07-31T07:13:30.592Z,135.00
2018-07-31T07:15:23.415Z,135.00
2018-07-31T07:16:23.288Z,135.00
2018-07-31T07:18:16.161Z,135.00
2018-07-31T07:19:16.040Z,135.00
2018-07-31T07:21:10.020Z,140.63
2018-07-31T07:22:09.933Z,140.63
2018-07-31T07:24:02.828Z,140.63
2018-07-31T07:25:04.135Z,140.63
2018-07-31T07:26:55.499Z,140.63
2018-07-31T07:27:55.468Z,146.25
2018-07-31T07:29:48.464Z,146.25
2018-07-31T07:30:48.370Z,146.25
2018-07-31T07:32:41.741Z,146.25
2018-07-31T07:33:41.397Z,146.25
2018-07-31T07:35:34.204Z,146.25
2018-07-31T07:36:34.075Z,151.88
2018-07-31T07:38:26.949Z,151.88
2018-07-31T07:39:26.821Z,151.88
2018-07-31T07:41:19.664Z,151.88
2018-07-31T07:42:19.574Z,151.88
2018-07-31T07:44:12.424Z,151.88
2018-07-31T07:45:12.384Z,151.88
2018-07-31T07:47:05.202Z,157.50
2018-07-31T07:48:05.072Z,157.50
2018-07-31T07:49:57.919Z,157.50
2018-07-31T07:50:57.818Z,157.50
2018-07-31T07:52:50.679Z,157.50
2018-07-31T07:53:50.612Z,157.50
2018-07-31T07:55:43.447Z,157.50
2018-07-31T07:56:43.318Z,157.50
2018-07-31T07:58:36.214Z,157.50
2018-07-31T07:59:36.072Z,157.50
2018-07-31T08:01:28.920Z,157.50
2018-07-31T08:02:28.823Z,157.50
2018-07-31T08:04:21.668Z,163.13
2018-07-31T08:05:21.588Z,163.13
2018-07-31T08:07:14.407Z,168.75
2018-07-31T08:08:14.378Z,168.75
2018-07-31T08:10:08.088Z,174.38
2018-07-31T08:11:07.991Z,174.38
2018-07-31T08:13:00.856Z,174.38
2018-07-31T08:14:00.752Z,180.00
2018-07-31T08:15:53.985Z,174.38
2018-07-31T08:16:53.920Z,180.00
2018-07-31T08:18:46.774Z,180.00
2018-07-31T08:19:46.701Z,174.38
2018-07-31T08:21:39.509Z,135.00
2018-07-31T08:22:39.419Z,78.75
2018-07-31T08:24:32.258Z,185.63
2018-07-31T08:25:32.164Z,185.63
2018-07-31T08:27:25.515Z,185.63
2018-07-31T08:28:24.903Z,168.75
2018-07-31T08:30:17.766Z,185.63
2018-07-31T08:31:17.670Z,185.63
2018-07-31T08:33:10.603Z,191.25
2018-07-31T08:34:10.402Z,191.25
2018-07-31T08:36:03.246Z,185.63
2018-07-31T08:37:03.158Z,191.25
2018-07-31T08:38:56.024Z,196.88
2018-07-31T08:39:55.894Z,196.88
2018-07-31T08:41:49.274Z,196.88
2018-07-31T08:42:48.660Z,196.88
2018-07-31T08:44:41.621Z,90.00
2018-07-31T08:45:41.517Z,84.38
2018-07-31T08:47:34.381Z,90.00
2018-07-31T08:48:34.247Z,118.13
2018-07-31T08:50:27.080Z,196.88
2018-07-31T08:51:27.004Z,106.88
2018-07-31T08:53:19.840Z,191.25
2018-07-31T08:54:19.772Z,191.25
2018-07-31T08:56:12.604Z,146.25
2018-07-31T08:57:12.498Z,112.50
2018-07-31T08:59:05.357Z,191.25
2018-07-31T09:00:05.244Z,118.13
2018-07-31T09:01:58.100Z,112.50
2018-07-31T09:02:57.991Z,129.38
2018-07-31T09:04:50.856Z,123.75
2018-07-31T09:05:50.766Z,185.63
2018-07-31T09:07:43.697Z,202.50
2018-07-31T09:08:43.697Z,180.00
2018-07-31T09:10:36.450Z,185.63
2018-07-31T09:11:36.354Z,118.13
2018-07-31T09:13:29.213Z,208.13
2018-07-31T09:14:29.098Z,213.75
2018-07-31T09:16:21.940Z,213.75
2018-07-31T09:17:21.857Z,213.75
2018-07-31T09:19:14.696Z,191.25
2018-07-31T09:20:14.602Z,213.75
2018-07-31T09:22:07.425Z,191.25
2018-07-31T09:23:07.384Z,112.50
2018-07-31T09:25:00.226Z,112.50
2018-07-31T09:26:00.160Z,219.38
2018-07-31T09:27:52.971Z,219.38
2018-07-31T09:28:52.844Z,219.38
2018-07-31T09:30:45.722Z,219.38
2018-07-31T09:31:45.602Z,225.00
2018-07-31T09:33:38.455Z,219.38
2018-07-31T09:34:38.356Z,112.50
2018-07-31T09:36:31.258Z,106.88
2018-07-31T09:37:31.097Z,106.88
2018-07-31T09:39:23.975Z,112.50
2018-07-31T09:40:23.854Z,112.50
2018-07-31T09:42:16.682Z,129.38
2018-07-31T09:43:16.600Z,146.25
2018-07-31T09:45:09.449Z,230.63
2018-07-31T09:46:09.353Z,230.63
2018-07-31T09:48:02.188Z,230.63
2018-07-31T09:49:02.102Z,146.25
2018-07-31T09:50:55.477Z,123.75
2018-07-31T09:51:55.375Z,118.13
2018-07-31T09:53:48.202Z,140.63
2018-07-31T09:54:48.101Z,163.13
2018-07-31T09:56:40.934Z,225.00
2018-07-31T09:57:40.863Z,123.75
2018-07-31T09:59:33.714Z,213.75
2018-07-31T10:00:33.618Z,225.00
2018-07-31T10:02:26.475Z,118.13
2018-07-31T10:03:26.361Z,123.75
2018-07-31T10:05:19.214Z,123.75
2018-07-31T10:06:19.109Z,168.75
2018-07-31T10:08:12.456Z,123.75
2018-07-31T10:09:12.380Z,123.75
2018-07-31T10:11:05.227Z,123.75
2018-07-31T10:12:05.157Z,241.88
2018-07-31T10:13:57.997Z,247.50
2018-07-31T10:14:57.862Z,247.50
2018-07-31T10:16:50.692Z,247.50
2018-07-31T10:17:50.665Z,241.88
2018-07-31T10:19:43.976Z,146.25
2018-07-31T10:20:43.877Z,247.50
2018-07-31T10:22:36.712Z,140.63
2018-07-31T10:23:36.621Z,129.38
2018-07-31T10:25:29.474Z,129.38
2018-07-31T10:26:29.391Z,129.38
2018-07-31T10:28:22.214Z,241.88
2018-07-31T10:29:22.120Z,247.50
2018-07-31T10:31:14.997Z,135.00
2018-07-31T10:32:14.906Z,129.38
2018-07-31T10:34:07.721Z,135.00
2018-07-31T10:35:07.625Z,163.13
2018-07-31T10:37:00.487Z,253.13
2018-07-31T10:38:00.384Z,157.50
2018-07-31T10:39:53.242Z,129.38
2018-07-31T10:40:53.124Z,129.38
2018-07-31T10:42:46.473Z,241.88
2018-07-31T10:43:46.442Z,247.50
2018-07-31T10:45:39.347Z,247.50
2018-07-31T10:46:39.132Z,247.50
2018-07-31T10:48:31.998Z,247.50
2018-07-31T10:49:31.880Z,247.50
2018-07-31T10:51:24.723Z,146.25
2018-07-31T10:52:24.675Z,135.00
2018-07-31T10:54:17.481Z,168.75
2018-07-31T10:55:17.396Z,236.25
2018-07-31T10:57:10.244Z,241.88
2018-07-31T10:58:10.227Z,247.50
2018-07-31T11:00:03.027Z,253.13
2018-07-31T11:01:02.892Z,247.50
2018-07-31T11:02:55.859Z,253.13
2018-07-31T11:03:55.748Z,163.13
2018-07-31T11:05:49.005Z,247.50
2018-07-31T11:06:48.897Z,247.50
2018-07-31T11:08:41.758Z,253.13
2018-07-31T11:09:41.644Z,163.13
2018-07-31T11:11:34.482Z,253.13
2018-07-31T11:12:34.396Z,258.75
2018-07-31T11:14:27.245Z,258.75
2018-07-31T11:15:27.174Z,258.75
2018-07-31T11:17:19.981Z,264.38
2018-07-31T11:18:19.915Z,264.38
2018-07-31T11:20:12.740Z,225.00
2018-07-31T11:21:12.681Z,168.75
2018-07-31T11:23:05.476Z,270.00
2018-07-31T11:24:05.397Z,270.00
2018-07-31T11:25:58.257Z,253.13
2018-07-31T11:26:58.150Z,264.38
2018-07-31T11:28:50.992Z,174.38
2018-07-31T11:29:50.908Z,168.75
2018-07-31T11:31:43.746Z,168.75
2018-07-31T11:32:43.654Z,174.38
2018-07-31T11:34:36.501Z,168.75
2018-07-31T11:35:36.394Z,168.75
2018-07-31T11:37:29.235Z,174.38
2018-07-31T11:38:29.185Z,168.75
2018-07-31T11:40:22.002Z,174.38
2018-07-31T11:41:21.916Z,174.38
2018-07-31T11:43:14.744Z,258.75
2018-07-31T11:44:14.641Z,270.00
2018-07-31T11:46:07.511Z,275.63
2018-07-31T11:47:07.388Z,275.63
2018-07-31T11:49:00.236Z,180.00
2018-07-31T11:50:00.205Z,180.00
2018-07-31T11:51:52.985Z,213.75
2018-07-31T11:52:52.904Z,253.13
2018-07-31T11:54:46.245Z,258.75
2018-07-31T11:55:46.158Z,253.13
2018-07-31T11:57:38.995Z,258.75
2018-07-31T11:58:38.909Z,202.50
2018-07-31T12:00:31.738Z,247.50
2018-07-31T12:01:31.657Z,247.50
2018-07-31T12:03:24.497Z,264.38
2018-07-31T12:04:24.400Z,264.38
2018-07-31T12:06:17.758Z,264.38
2018-07-31T12:07:17.670Z,241.88
2018-07-31T12:09:11.024Z,241.88
2018-07-31T12:10:10.976Z,247.50
2018-07-31T12:12:03.790Z,230.63
2018-07-31T12:13:03.689Z,270.00
2018-07-31T12:14:57.041Z,219.38
2018-07-31T12:15:56.974Z,230.63
2018-07-31T12:17:49.820Z,258.75
2018-07-31T12:18:49.702Z,241.88
2018-07-31T12:20:42.550Z,264.38
2018-07-31T12:21:42.433Z,264.38
2018-07-31T12:23:35.296Z,258.75
2018-07-31T12:24:35.181Z,258.75
2018-07-31T12:26:28.024Z,264.38
2018-07-31T12:27:27.931Z,270.00
2018-07-31T12:29:20.834Z,264.38
2018-07-31T12:30:20.821Z,275.63
2018-07-31T12:32:13.537Z,264.38
2018-07-31T12:33:13.521Z,270.00
2018-07-31T12:35:06.277Z,202.50
2018-07-31T12:36:06.195Z,236.25
2018-07-31T12:37:59.529Z,236.25
2018-07-31T12:38:59.445Z,225.00
2018-07-31T12:40:52.279Z,270.00
2018-07-31T12:41:52.204Z,258.75
2018-07-31T12:43:45.052Z,275.63
2018-07-31T12:44:44.941Z,275.63
2018-07-31T12:46:37.786Z,264.38
2018-07-31T12:47:37.752Z,208.13
2018-07-31T12:49:31.062Z,270.00
2018-07-31T12:50:30.957Z,281.25
2018-07-31T12:52:23.786Z,264.38
2018-07-31T12:53:23.705Z,258.75
2018-07-31T12:55:16.559Z,258.75
2018-07-31T12:56:16.452Z,264.38
2018-07-31T12:58:09.284Z,241.88
2018-07-31T12:59:09.203Z,236.25
2018-07-31T13:01:02.067Z,247.50
2018-07-31T13:02:01.966Z,241.88
2018-07-31T13:03:54.804Z,230.63
2018-07-31T13:04:54.710Z,236.25
2018-07-31T13:06:47.537Z,247.50
2018-07-31T13:07:47.452Z,258.75
2018-07-31T13:09:40.297Z,185.63
2018-07-31T13:10:40.205Z,185.63
2018-07-31T13:12:33.080Z,230.63
2018-07-31T13:13:32.956Z,196.88
2018-07-31T13:15:26.325Z,247.50
2018-07-31T13:16:26.227Z,247.50
2018-07-31T13:18:20.111Z,270.00
2018-07-31T13:19:19.980Z,247.50
2018-07-31T13:21:12.845Z,247.50
2018-07-31T13:22:12.740Z,264.38
2018-07-31T13:24:05.581Z,275.63
2018-07-31T13:25:05.485Z,264.38
2018-07-31T13:26:58.314Z,185.63
2018-07-31T13:27:58.241Z,191.25
2018-07-31T13:29:51.077Z,196.88
2018-07-31T13:30:51.007Z,191.25
2018-07-31T13:32:43.813Z,196.88
2018-07-31T13:33:43.731Z,196.88
2018-07-31T13:35:36.673Z,185.63
2018-07-31T13:36:36.485Z,191.25
2018-07-31T13:38:29.343Z,196.88
2018-07-31T13:39:29.226Z,253.13
2018-07-31T13:41:22.261Z,264.38
2018-07-31T13:42:22.182Z,258.75
2018-07-31T13:44:15.146Z,275.63
2018-07-31T13:45:14.943Z,258.75
2018-07-31T13:47:07.803Z,270.00
2018-07-31T13:48:07.706Z,213.75
2018-07-31T13:50:01.043Z,230.63
2018-07-31T13:51:00.939Z,247.50
2018-07-31T13:52:53.774Z,213.75
2018-07-31T13:53:53.696Z,202.50
2018-07-31T13:55:46.549Z,191.25
2018-07-31T13:56:46.438Z,196.88
2018-07-31T13:58:39.306Z,202.50
2018-07-31T13:59:39.191Z,191.25
2018-07-31T14:01:32.031Z,208.13
2018-07-31T14:02:31.944Z,219.38
2018-07-31T14:04:24.831Z,225.00
2018-07-31T14:05:24.688Z,208.13
2018-07-31T14:07:17.525Z,174.38
2018-07-31T14:08:17.463Z,174.38
2018-07-31T14:10:10.291Z,185.63
2018-07-31T14:11:10.197Z,191.25
2018-07-31T14:13:03.054Z,180.00
2018-07-31T14:14:02.938Z,185.63
2018-07-31T14:15:55.881Z,185.63
2018-07-31T14:16:55.787Z,185.63
2018-07-31T14:19:13.458Z,191.25
2018-07-31T14:19:49.085Z,196.88
2018-07-31T14:21:42.043Z,196.88
2018-07-31T14:22:41.848Z,196.88
2018-07-31T14:24:34.678Z,202.50
2018-07-31T14:25:34.552Z,208.13
2018-07-31T14:27:27.498Z,213.75
2018-07-31T14:28:27.418Z,213.75
2018-07-31T14:30:20.576Z,213.75
2018-07-31T14:31:20.461Z,219.38
2018-07-31T14:33:13.418Z,281.25
2018-07-31T14:34:13.317Z,286.88
2018-07-31T14:36:08.440Z,286.88
2018-07-31T14:37:06.190Z,286.88
2018-07-31T14:39:19.835Z,270.00
2018-07-31T14:40:04.692Z,225.00
2018-07-31T14:41:58.217Z,275.63
2018-07-31T14:42:59.449Z,286.88
2018-07-31T14:44:54.939Z,286.88
2018-07-31T14:45:54.583Z,281.25
2018-07-31T14:50:30.304Z,264.38
2018-07-31T14:51:30.193Z,281.25
2018-07-31T14:53:23.008Z,281.25
2018-07-31T14:54:22.929Z,275.63
2018-07-31T14:56:16.828Z,275.63
2018-07-31T14:57:15.708Z,275.63
2018-07-31T14:59:09.668Z,281.25
2018-07-31T15:00:09.561Z,270.00
2018-07-31T15:02:02.435Z,247.50
2018-07-31T15:03:02.321Z,236.25
2018-07-31T15:04:55.170Z,241.88
2018-07-31T15:05:55.077Z,264.38
2018-07-31T15:07:48.018Z,292.50
2018-07-31T15:08:47.927Z,298.13
2018-07-31T15:10:40.807Z,253.13
2018-07-31T15:11:40.712Z,298.13
2018-07-31T15:13:34.015Z,292.50
2018-07-31T15:14:33.938Z,303.75
2018-07-31T15:16:26.789Z,309.38
2018-07-31T15:17:26.709Z,309.38
2018-07-31T15:19:20.647Z,309.38
2018-07-31T15:20:20.549Z,309.38
2018-07-31T15:22:13.384Z,309.38
2018-07-31T15:23:13.317Z,309.38
2018-07-31T15:25:06.166Z,247.50
2018-07-31T15:26:06.076Z,253.13
2018-07-31T15:27:59.443Z,247.50
2018-07-31T15:28:59.303Z,247.50
2018-07-31T15:30:52.678Z,241.88
2018-07-31T15:31:52.580Z,247.50
2018-07-31T15:33:45.425Z,264.38
2018-07-31T15:34:45.366Z,270.00
2018-07-31T15:36:38.170Z,270.00
2018-07-31T15:37:38.086Z,264.38
2018-07-31T15:39:30.931Z,241.88
2018-07-31T15:40:30.830Z,241.88
2018-07-31T15:42:23.680Z,258.75
2018-07-31T15:43:23.595Z,275.63
2018-07-31T15:45:16.460Z,309.38
2018-07-31T15:46:16.388Z,303.75
2018-07-31T15:48:09.190Z,298.13
2018-07-31T15:49:09.050Z,270.00
2018-07-31T15:51:01.958Z,298.13
2018-07-31T15:52:01.825Z,286.88
2018-07-31T15:53:54.705Z,270.00
2018-07-31T15:54:54.587Z,241.88
2018-07-31T15:56:47.407Z,286.88
2018-07-31T15:57:47.330Z,292.50
2018-07-31T15:59:40.250Z,303.75
2018-07-31T16:00:40.088Z,303.75
2018-07-31T16:02:32.905Z,292.50
2018-07-31T16:03:32.830Z,270.00
2018-07-31T16:05:25.714Z,264.38
2018-07-31T16:06:25.588Z,230.63
2018-07-31T16:08:18.410Z,236.25
2018-07-31T16:09:18.336Z,236.25
2018-07-31T16:11:11.230Z,286.88
2018-07-31T16:12:11.112Z,292.50
2018-07-31T16:14:03.908Z,315.00
2018-07-31T16:15:03.835Z,264.38
2018-07-31T16:16:56.673Z,286.88
2018-07-31T16:17:56.572Z,303.75
2018-07-31T16:19:49.437Z,343.13
2018-07-31T16:20:49.329Z,320.63
2018-07-31T16:22:42.249Z,247.50
2018-07-31T16:23:42.183Z,253.13
2018-07-31T16:25:35.130Z,258.75
2018-07-31T16:26:35.035Z,298.13
2018-07-31T16:28:27.888Z,348.75
2018-07-31T16:29:27.784Z,343.13
2018-07-31T16:31:20.631Z,230.63
2018-07-31T16:32:20.528Z,225.00
2018-07-31T16:34:13.381Z,219.38
2018-07-31T16:35:13.284Z,275.63
2018-07-31T16:37:06.116Z,331.88
2018-07-31T16:38:06.029Z,331.88
2018-07-31T16:39:58.853Z,337.50
2018-07-31T16:40:58.779Z,320.63
2018-07-31T16:42:52.140Z,213.75
2018-07-31T16:43:52.055Z,326.25
2018-07-31T16:45:44.922Z,360.00
2018-07-31T16:46:44.788Z,365.63
2018-07-31T16:48:37.683Z,365.63
2018-07-31T16:49:37.551Z,343.13
2018-07-31T16:51:30.383Z,360.00
2018-07-31T16:52:30.294Z,360.00
2018-07-31T16:54:23.154Z,360.00
2018-07-31T16:55:23.043Z,360.00
2018-07-31T16:57:15.879Z,365.63
2018-07-31T16:58:15.782Z,371.25
2018-07-31T17:00:08.622Z,376.88
2018-07-31T17:01:08.536Z,382.50
2018-07-31T17:03:01.484Z,382.50
2018-07-31T17:04:01.386Z,388.13
2018-07-31T17:05:54.222Z,393.75
2018-07-31T17:06:54.150Z,399.38
2018-07-31T17:08:47.041Z,421.88
2018-07-31T17:09:46.901Z,433.13
2018-07-31T17:11:40.249Z,1051.88
2018-07-31T17:12:40.149Z,1788.75
2018-07-31T17:14:33.083Z,2430.00
2018-07-31T17:15:33.019Z,2446.88
2018-07-31T17:17:25.869Z,2413.13
2018-07-31T17:18:25.802Z,2396.25
2018-07-31T17:20:18.595Z,2491.88
2018-07-31T17:21:18.508Z,2430.00
2018-07-31T17:23:11.352Z,2205.00
2018-07-31T17:24:11.276Z,2216.25
2018-07-31T17:26:04.109Z,2340.00
2018-07-31T17:27:04.001Z,2379.38
2018-07-31T17:28:56.948Z,2306.25
2018-07-31T17:29:56.853Z,2278.13
2018-07-31T17:31:49.694Z,2255.63
2018-07-31T17:32:49.623Z,2205.00
2018-07-31T17:34:42.434Z,2182.50
2018-07-31T17:35:42.367Z,2148.75
2018-07-31T17:37:35.201Z,2120.63
2018-07-31T17:38:35.112Z,2131.88
2018-07-31T17:40:28.024Z,2041.88
2018-07-31T17:41:27.964Z,2002.50
2018-07-31T17:43:20.858Z,1923.75
2018-07-31T17:44:20.768Z,1833.75
2018-07-31T17:46:13.536Z,1895.63
2018-07-31T17:47:13.465Z,1878.75
2018-07-31T17:49:06.319Z,1732.50
2018-07-31T17:50:06.209Z,1760.63
2018-07-31T17:51:59.161Z,1755.00
2018-07-31T17:52:59.091Z,1642.50
2018-07-31T17:54:51.992Z,1558.13
2018-07-31T17:55:51.925Z,1563.75
2018-07-31T17:57:44.752Z,1485.00
2018-07-31T17:58:44.671Z,1440.00
2018-07-31T18:00:37.501Z,1344.38
2018-07-31T18:01:37.449Z,1265.63
2018-07-31T18:03:30.301Z,1209.38
2018-07-31T18:04:30.205Z,1181.25
2018-07-31T18:06:23.110Z,1057.50
2018-07-31T18:07:23.006Z,849.38
2018-07-31T18:09:15.953Z,675.00
2018-07-31T18:10:15.863Z,781.88
2018-07-31T18:12:08.696Z,810.00
2018-07-31T18:13:08.622Z,523.13
2018-07-31T18:15:01.447Z,168.75
2018-07-31T18:16:01.377Z,180.00
2018-07-31T18:17:54.302Z,163.13